Time;durP1;ratioP1;P1;durP2;ratioP2;P2;SDS_P1;SDS_P2;PMS_P1;PMS_P2;Temp;Humidity;BMP_temperature;BMP_pressure;BME280_temperature;BME280_humidity;BME280_pressure;Samples;Min_cycle;Max_cycle;Signal;HPM_P1;HPM_P2
2023/10/22 00:01:32;;;;;;;5.23;1.70;;;13.20;99.90;;;;;;5034314;28;20473;-60
2023/10/22 00:04:00;;;;;;;4.37;1.73;;;13.20;99.90;;;;;;5035076;28;20463;-60
2023/10/22 00:06:27;;;;;;;3.43;2.10;;;13.20;99.90;;;;;;5034975;28;20717;-60
2023/10/22 00:08:55;;;;;;;4.20;2.17;;;13.20;99.90;;;;;;5035084;28;20579;-60
2023/10/22 00:11:23;;;;;;;6.67;2.43;;;13.10;99.90;;;;;;5035421;28;20876;-60
2023/10/22 00:13:50;;;;;;;4.63;2.80;;;13.20;99.90;;;;;;5034808;28;20532;-60
2023/10/22 00:16:17;;;;;;;7.20;2.20;;;13.10;99.90;;;;;;5034964;28;20455;-60
2023/10/22 00:18:44;;;;;;;6.87;2.40;;;13.10;99.90;;;;;;5034308;28;20778;-60
2023/10/22 00:21:11;;;;;;;4.83;2.13;;;13.10;99.90;;;;;;5034703;28;20586;-61
2023/10/22 00:23:39;;;;;;;4.57;2.00;;;13.20;99.90;;;;;;5035304;28;20526;-60
2023/10/22 00:26:14;;;;;;;5.20;2.53;;;13.10;99.90;;;;;;5034949;28;20478;-60
2023/10/22 00:28:41;;;;;;;4.10;1.77;;;13.10;1.00;;;;;;5035420;28;20459;-60
2023/10/22 00:31:08;;;;;;;4.07;1.80;;;13.10;1.00;;;;;;5035192;28;20875;-60
2023/10/22 00:33:35;;;;;;;6.10;2.97;;;13.20;1.00;;;;;;5035032;28;20491;-60
2023/10/22 00:36:02;;;;;;;11.30;2.23;;;13.20;1.00;;;;;;5034536;28;20466;-60
2023/10/22 00:38:30;;;;;;;4.23;2.13;;;13.20;99.90;;;;;;5034777;28;20876;-60
2023/10/22 00:40:57;;;;;;;6.83;2.97;;;13.20;99.90;;;;;;5034716;28;20488;-60
2023/10/22 00:43:25;;;;;;;5.23;2.57;;;13.10;99.90;;;;;;5036763;27;20473;-60
2023/10/22 00:45:53;;;;;;;3.53;2.33;;;13.20;1.00;;;;;;5014719;28;20893;-60
2023/10/22 00:48:22;;;;;;;3.70;1.90;;;13.20;99.90;;;;;;5013600;28;20467;-59
2023/10/22 00:50:50;;;;;;;4.30;2.10;;;13.20;99.90;;;;;;5014844;28;20890;-61
2023/10/22 00:53:18;;;;;;;6.60;2.30;;;13.20;99.90;;;;;;5013892;28;20930;-59
2023/10/22 00:55:47;;;;;;;4.40;1.87;;;13.20;99.90;;;;;;5015228;28;20567;-60
2023/10/22 00:58:16;;;;;;;7.30;2.20;;;13.20;99.90;;;;;;5014513;28;20589;-60
2023/10/22 01:00:46;;;;;;;4.60;2.20;;;13.20;1.00;;;;;;5014605;28;20592;-60
2023/10/22 01:03:13;;;;;;;5.30;1.80;;;13.20;99.90;;;;;;5013595;28;20567;-60
2023/10/22 01:05:40;;;;;;;5.13;2.00;;;13.20;99.90;;;;;;5013627;28;20467;-60
2023/10/22 01:08:08;;;;;;;3.60;1.67;;;13.20;99.90;;;;;;5012788;28;20484;-60
2023/10/22 01:10:35;;;;;;;5.43;2.10;;;13.20;99.90;;;;;;5012817;28;20511;-61
2023/10/22 01:13:03;;;;;;;4.00;2.43;;;13.20;99.90;;;;;;5013333;28;20463;-60
2023/10/22 01:15:31;;;;;;;4.63;1.73;;;13.20;99.90;;;;;;5012482;28;20460;-60
2023/10/22 01:17:59;;;;;;;4.47;2.13;;;13.20;99.90;;;;;;5014175;28;20564;-61
2023/10/22 01:20:26;;;;;;;5.23;1.80;;;13.20;99.90;;;;;;5014348;28;20567;-60
2023/10/22 01:22:53;;;;;;;3.90;1.93;;;13.30;99.90;;;;;;5014579;28;20932;-60
2023/10/22 01:25:22;;;;;;;5.93;3.10;;;13.20;99.90;;;;;;5014787;28;20465;-60
2023/10/22 01:27:49;;;;;;;5.07;1.90;;;13.30;99.90;;;;;;5014212;28;20460;-60
2023/10/22 01:30:16;;;;;;;5.00;1.50;;;13.20;1.00;;;;;;5014261;28;20881;-60
2023/10/22 01:32:43;;;;;;;4.27;1.50;;;13.20;99.90;;;;;;5014667;28;20514;-60
2023/10/22 01:35:12;;;;;;;5.17;2.40;;;13.20;1.00;;;;;;5014353;28;20551;-60
2023/10/22 01:37:39;;;;;;;5.30;2.53;;;13.20;1.00;;;;;;5014661;28;20525;-60
2023/10/22 01:40:07;;;;;;;5.40;1.97;;;13.20;1.00;;;;;;5014209;28;20456;-61
2023/10/22 01:42:36;;;;;;;5.20;2.50;;;13.20;1.00;;;;;;5014223;28;20549;-60
2023/10/22 01:45:06;;;;;;;3.83;2.20;;;13.20;1.00;;;;;;5014359;28;20435;-60
2023/10/22 01:47:33;;;;;;;4.90;1.70;;;13.20;1.00;;;;;;5014584;28;20464;-61
2023/10/22 01:50:00;;;;;;;5.90;1.93;;;13.20;1.00;;;;;;5014237;28;20547;-60
2023/10/22 01:52:27;;;;;;;4.63;2.37;;;13.20;1.00;;;;;;5014061;28;20494;-61
2023/10/22 01:54:54;;;;;;;4.00;1.70;;;13.20;1.00;;;;;;5014020;28;20470;-61
2023/10/22 01:57:21;;;;;;;3.70;1.90;;;13.10;1.00;;;;;;5014433;28;20471;-60
2023/10/22 01:59:50;;;;;;;4.20;2.03;;;13.10;1.00;;;;;;5013528;28;20456;-60
2023/10/22 02:02:17;;;;;;;5.33;1.90;;;13.10;1.00;;;;;;5013912;28;20554;-60
2023/10/22 02:04:45;;;;;;;3.23;1.70;;;13.10;1.00;;;;;;5014046;28;20559;-60
2023/10/22 02:07:12;;;;;;;5.97;2.50;;;13.10;1.00;;;;;;5013650;28;20483;-61
2023/10/22 02:09:39;;;;;;;4.60;2.20;;;13.00;1.00;;;;;;5014096;28;20740;-60
2023/10/22 02:12:08;;;;;;;5.10;2.07;;;13.00;1.00;;;;;;5014019;28;20826;-60
2023/10/22 02:14:36;;;;;;;4.30;1.90;;;13.00;1.00;;;;;;5013287;28;20460;-60
2023/10/22 02:17:05;;;;;;;5.97;1.93;;;13.00;1.00;;;;;;5013910;28;20463;-60
2023/10/22 02:19:32;;;;;;;3.63;1.97;;;13.00;1.00;;;;;;5014412;28;20529;-60
2023/10/22 02:21:59;;;;;;;2.93;1.80;;;13.00;1.00;;;;;;5013825;28;20517;-60
2023/10/22 02:24:28;;;;;;;2.67;1.47;;;13.00;1.00;;;;;;5013393;28;20509;-61
2023/10/22 02:26:55;;;;;;;2.77;1.63;;;13.00;1.00;;;;;;5013799;28;20529;-60
2023/10/22 02:29:22;;;;;;;4.23;1.93;;;13.00;1.00;;;;;;5016724;28;20752;-60
2023/10/22 02:31:49;;;;;;;4.13;2.13;;;13.00;1.00;;;;;;5016873;28;20499;-59
2023/10/22 02:34:18;;;;;;;5.03;1.80;;;12.90;1.00;;;;;;5017122;28;20466;-60
2023/10/22 02:36:45;;;;;;;4.70;2.00;;;12.90;1.00;;;;;;5017042;28;20486;-61
2023/10/22 02:39:12;;;;;;;2.90;1.63;;;12.90;1.00;;;;;;5017310;28;20456;-60
2023/10/22 02:41:39;;;;;;;3.57;1.80;;;12.90;1.00;;;;;;5017049;28;20492;-59
2023/10/22 02:44:06;;;;;;;3.53;2.30;;;12.90;1.00;;;;;;5016597;28;20439;-60
2023/10/22 02:46:34;;;;;;;4.20;1.90;;;12.90;1.00;;;;;;5016895;28;20455;-60
2023/10/22 02:49:01;;;;;;;3.67;2.10;;;12.90;1.00;;;;;;5016814;28;20906;-60
2023/10/22 02:51:29;;;;;;;5.70;1.80;;;12.80;1.00;;;;;;5016749;28;20463;-60
2023/10/22 02:53:56;;;;;;;3.43;1.90;;;12.90;1.00;;;;;;5016312;28;20460;-60
2023/10/22 02:56:24;;;;;;;2.90;1.50;;;12.80;28.10;;;;;;5016682;28;20559;-60
2023/10/22 02:58:51;;;;;;;3.87;1.90;;;12.70;99.90;;;;;;5016807;28;20464;-60
2023/10/22 03:01:18;;;;;;;11.20;2.97;;;12.70;99.90;;;;;;5017115;28;20496;-60
2023/10/22 03:03:46;;;;;;;2.73;1.57;;;12.70;99.90;;;;;;5016788;28;20461;-60
2023/10/22 03:06:13;;;;;;;4.43;1.80;;;12.60;99.90;;;;;;5016397;28;20460;-60
2023/10/22 03:08:42;;;;;;;3.90;1.60;;;12.60;99.90;;;;;;5016244;28;20502;-60
2023/10/22 03:11:16;;;;;;;4.00;1.90;;;12.60;99.90;;;;;;5015961;28;20459;-60
2023/10/22 03:13:43;;;;;;;4.57;2.00;;;12.60;99.90;;;;;;5016321;28;20925;-60
2023/10/22 03:16:14;;;;;;;4.10;2.80;;;12.60;99.90;;;;;;5015620;28;20897;-60
2023/10/22 03:18:42;;;;;;;9.13;2.17;;;12.60;99.90;;;;;;5016585;28;20460;-60
2023/10/22 03:21:12;;;;;;;3.90;1.90;;;12.50;99.90;;;;;;5016641;28;20492;-61
2023/10/22 03:23:42;;;;;;;3.13;1.93;;;12.50;1.00;;;;;;5016371;28;20464;-60
2023/10/22 03:26:09;;;;;;;2.33;1.33;;;12.50;1.00;;;;;;5016531;28;20464;-60
2023/10/22 03:28:37;;;;;;;3.27;1.83;;;12.30;99.70;;;;;;5016436;28;20787;-60
2023/10/22 03:31:05;;;;;;;4.00;1.77;;;12.30;99.90;;;;;;5016278;28;20885;-60
2023/10/22 03:33:32;;;;;;;2.80;1.60;;;12.20;99.90;;;;;;5016192;28;20460;-60
2023/10/22 03:35:59;;;;;;;5.67;1.97;;;12.20;99.90;;;;;;5015733;28;20471;-60
2023/10/22 03:38:26;;;;;;;4.43;1.43;;;12.20;99.90;;;;;;5015391;28;20471;-60
2023/10/22 03:41:03;;;;;;;3.40;2.13;;;12.20;99.90;;;;;;5025492;28;20464;-60
2023/10/22 03:43:31;;;;;;;3.87;1.93;;;12.20;99.90;;;;;;5035765;28;20459;-60
2023/10/22 03:45:59;;;;;;;2.83;1.60;;;12.20;99.90;;;;;;5035736;28;20465;-60
2023/10/22 03:48:27;;;;;;;4.70;1.90;;;12.20;99.90;;;;;;5035434;28;20463;-60
2023/10/22 03:50:55;;;;;;;3.43;1.33;;;12.20;99.90;;;;;;5035696;28;20871;-60
2023/10/22 03:53:22;;;;;;;3.47;1.90;;;12.20;99.90;;;;;;5035719;28;20741;-60
2023/10/22 03:55:49;;;;;;;3.00;1.50;;;12.30;99.90;;;;;;5036021;28;20463;-61
2023/10/22 03:58:18;;;;;;;3.00;2.00;;;12.30;99.90;;;;;;5035206;28;20455;-61
2023/10/22 04:00:45;;;;;;;5.00;1.70;;;12.30;99.90;;;;;;5035717;28;20482;-61
2023/10/22 04:03:13;;;;;;;2.70;1.80;;;12.20;99.90;;;;;;5035429;28;20487;-60
2023/10/22 04:05:40;;;;;;;3.83;2.00;;;12.20;99.90;;;;;;5035448;28;20469;-61
2023/10/22 04:08:07;;;;;;;2.87;1.50;;;12.20;1.00;;;;;;5035383;28;20483;-61
2023/10/22 04:10:35;;;;;;;3.20;1.73;;;12.10;1.00;;;;;;5035048;28;20512;-61
2023/10/22 04:13:03;;;;;;;5.10;2.10;;;12.10;66.30;;;;;;5035206;28;20459;-62
2023/10/22 04:15:37;;;;;;;4.97;1.70;;;12.00;99.90;;;;;;5035254;28;20466;-61
2023/10/22 04:18:05;;;;;;;4.20;1.70;;;11.90;99.90;;;;;;5035263;28;20463;-61
2023/10/22 04:20:33;;;;;;;4.33;1.80;;;11.90;1.00;;;;;;5035381;28;20549;-61
2023/10/22 04:23:00;;;;;;;6.17;2.30;;;11.80;1.00;;;;;;5035351;28;20502;-61
2023/10/22 04:25:28;;;;;;;4.70;2.03;;;11.80;6.20;;;;;;5035116;28;20435;-60
2023/10/22 04:27:55;;;;;;;5.23;2.13;;;11.70;99.90;;;;;;5034942;28;20460;-61
2023/10/22 04:30:23;;;;;;;5.10;2.10;;;11.80;99.90;;;;;;5034712;28;20463;-61
2023/10/22 04:32:52;;;;;;;2.40;1.40;;;11.80;1.00;;;;;;5022359;28;20884;-62
2023/10/22 04:35:19;;;;;;;3.80;1.80;;;11.70;1.00;;;;;;5034000;28;20451;-61
2023/10/22 04:37:46;;;;;;;4.60;1.80;;;11.70;25.00;;;;;;5033114;28;20451;-61
2023/10/22 04:40:14;;;;;;;3.40;1.87;;;11.70;89.10;;;;;;5031248;28;20456;-61
2023/10/22 04:42:40;;;;;;;3.60;1.80;;;11.70;99.90;;;;;;5033257;28;20491;-61
2023/10/22 04:45:08;;;;;;;4.43;1.83;;;11.70;67.10;;;;;;5033506;28;20501;-60
2023/10/22 04:47:35;;;;;;;5.93;2.10;;;11.70;62.80;;;;;;5034097;28;20463;-60
2023/10/22 04:50:04;;;;;;;3.17;1.70;;;11.70;2.70;;;;;;5034387;28;20463;-60
2023/10/22 04:52:32;;;;;;;3.63;1.57;;;11.70;1.00;;;;;;5034489;28;20462;-61
2023/10/22 04:55:00;;;;;;;5.33;2.00;;;11.70;1.00;;;;;;5034951;28;20976;-61
2023/10/22 04:57:27;;;;;;;3.40;1.90;;;11.80;1.00;;;;;;5034926;28;20462;-61
2023/10/22 04:59:55;;;;;;;3.80;1.63;;;11.80;1.00;;;;;;5034646;28;20900;-61
2023/10/22 05:02:22;;;;;;;4.23;1.80;;;11.80;1.00;;;;;;5034202;28;20534;-61
2023/10/22 05:04:51;;;;;;;4.57;1.90;;;11.80;1.00;;;;;;5033961;28;20459;-61
2023/10/22 05:07:20;;;;;;;6.57;2.33;;;11.80;1.00;;;;;;5034372;28;20780;-61
2023/10/22 05:09:47;;;;;;;3.00;1.80;;;11.80;1.00;;;;;;5034584;28;20504;-61
2023/10/22 05:12:15;;;;;;;2.63;1.97;;;11.80;1.00;;;;;;5034503;28;20876;-61
2023/10/22 05:14:43;;;;;;;3.60;1.60;;;11.80;1.00;;;;;;5034480;28;20467;-62
2023/10/22 05:17:10;;;;;;;2.40;1.60;;;11.80;1.00;;;;;;5034623;28;20900;-60
2023/10/22 05:19:37;;;;;;;2.63;1.50;;;11.80;98.50;;;;;;5034446;28;20540;-61
2023/10/22 05:22:05;;;;;;;2.60;1.50;;;11.80;99.90;;;;;;5033820;28;20499;-63
2023/10/22 05:24:34;;;;;;;3.20;1.60;;;11.80;99.90;;;;;;5034322;28;20523;-63
2023/10/22 05:27:01;;;;;;;3.37;1.97;;;11.80;99.90;;;;;;5034328;28;20482;-63
2023/10/22 05:29:29;;;;;;;2.63;1.30;;;11.70;99.90;;;;;;5034499;28;20466;-63
2023/10/22 05:31:56;;;;;;;3.90;1.87;;;11.70;99.90;;;;;;5034070;28;20455;-60
2023/10/22 05:34:23;;;;;;;2.20;1.40;;;11.70;1.00;;;;;;5034200;28;20903;-62
2023/10/22 05:36:50;;;;;;;4.47;1.37;;;11.70;1.00;;;;;;5034036;28;20470;-61
2023/10/22 05:39:17;;;;;;;3.40;1.37;;;11.60;1.00;;;;;;5034095;28;20463;-62
2023/10/22 05:41:46;;;;;;;3.43;1.53;;;11.60;99.90;;;;;;5033636;28;20754;-62
2023/10/22 05:44:13;;;;;;;2.47;1.40;;;11.60;99.90;;;;;;5033877;28;20460;-63
2023/10/22 05:46:41;;;;;;;3.00;1.87;;;11.60;99.90;;;;;;5034312;28;20458;-62
2023/10/22 05:49:10;;;;;;;2.40;1.37;;;11.60;99.90;;;;;;5034406;28;20884;-63
2023/10/22 05:51:37;;;;;;;2.87;1.77;;;11.50;1.00;;;;;;5034035;28;20498;-67
2023/10/22 05:54:05;;;;;;;3.63;2.23;;;11.60;37.70;;;;;;5033687;28;20470;-67
2023/10/22 05:56:33;;;;;;;2.40;1.30;;;11.40;99.90;;;;;;5034206;28;20935;-66
2023/10/22 05:59:04;;;;;;;3.53;1.70;;;11.20;99.90;;;;;;5035241;28;20524;-65
2023/10/22 06:01:31;;;;;;;3.00;1.60;;;11.00;99.90;;;;;;5034361;28;20459;-68
2023/10/22 06:03:59;;;;;;;2.50;1.73;;;11.00;99.90;;;;;;5036829;28;20501;-67
2023/10/22 06:06:26;;;;;;;2.70;1.87;;;11.00;1.00;;;;;;5036924;28;20433;-70
2023/10/22 06:08:53;;;;;;;2.20;1.40;;;11.00;85.10;;;;;;5037219;28;20581;-69
2023/10/22 06:11:20;;;;;;;2.20;1.37;;;11.00;99.90;;;;;;5037269;28;20752;-70
2023/10/22 06:13:47;;;;;;;2.47;1.70;;;11.00;99.90;;;;;;5036682;28;20484;-71
2023/10/22 06:16:16;;;;;;;2.67;1.80;;;11.00;99.90;;;;;;5037149;28;20749;-70
2023/10/22 06:18:43;;;;;;;2.47;1.40;;;11.10;99.90;;;;;;5036083;28;20502;-69
2023/10/22 06:21:11;;;;;;;5.00;1.40;;;11.10;1.00;;;;;;5036911;28;20466;-70
2023/10/22 06:23:38;;;;;;;3.00;1.43;;;11.10;99.90;;;;;;5036818;28;20502;-74
2023/10/22 06:26:05;;;;;;;2.77;1.40;;;11.10;99.90;;;;;;5036661;28;20458;-72
2023/10/22 06:28:33;;;;;;;2.50;1.40;;;11.10;99.90;;;;;;5036686;28;20463;-71
2023/10/22 06:31:07;;;;;;;2.30;1.07;;;11.00;99.90;;;;;;5040367;27;20902;-70
2023/10/22 06:33:36;;;;;;;2.80;1.87;;;11.10;99.90;;;;;;5035824;28;20486;-70
2023/10/22 06:36:17;;;;;;;2.10;1.30;;;11.00;99.90;;;;;;5035062;28;20530;-72
2023/10/22 06:38:46;;;;;;;2.10;1.10;;;11.00;99.90;;;;;;5034910;28;20465;-70
2023/10/22 06:41:13;;;;;;;2.70;1.53;;;11.00;99.90;;;;;;5035056;28;20775;-69
2023/10/22 06:43:40;;;;;;;2.47;1.40;;;11.10;99.90;;;;;;5034873;28;20479;-68
2023/10/22 06:46:08;;;;;;;2.47;1.53;;;11.10;99.90;;;;;;5035078;28;20465;-68
2023/10/22 06:48:36;;;;;;;2.40;1.80;;;11.20;99.90;;;;;;5034696;28;20455;-69
2023/10/22 06:51:09;;;;;;;3.13;1.83;;;11.10;99.90;;;;;;5035350;28;20705;-69
2023/10/22 06:53:36;;;;;;;2.93;1.70;;;11.20;99.90;;;;;;5034962;28;20451;-69
2023/10/22 06:56:04;;;;;;;3.10;2.00;;;11.20;99.90;;;;;;5035248;28;20858;-69
2023/10/22 06:58:31;;;;;;;6.33;1.90;;;11.20;99.90;;;;;;5035040;28;20516;-69
2023/10/22 07:01:05;;;;;;;2.43;1.80;;;11.30;99.90;;;;;;5034947;28;20466;-69
2023/10/22 07:03:33;;;;;;;2.50;1.60;;;11.30;99.90;;;;;;5033239;28;20821;-67
2023/10/22 07:06:01;;;;;;;3.20;1.70;;;11.30;99.90;;;;;;5034365;28;20463;-68
2023/10/22 07:08:29;;;;;;;2.27;1.57;;;11.20;99.90;;;;;;5034659;28;20458;-67
2023/10/22 07:10:56;;;;;;;3.63;1.80;;;11.30;99.90;;;;;;5034671;28;20463;-68
2023/10/22 07:13:24;;;;;;;2.40;1.60;;;11.30;99.90;;;;;;5033992;28;20464;-68
2023/10/22 07:15:52;;;;;;;4.40;1.83;;;11.30;99.90;;;;;;5033827;28;20512;-68
2023/10/22 07:18:19;;;;;;;2.37;1.70;;;11.30;99.90;;;;;;5036115;28;20542;-68
2023/10/22 07:20:47;;;;;;;3.17;1.90;;;11.20;99.90;;;;;;5035561;28;20962;-68
2023/10/22 07:23:16;;;;;;;3.37;1.60;;;11.20;99.90;;;;;;5035457;28;20714;-68
2023/10/22 07:25:44;;;;;;;2.57;1.80;;;11.20;99.90;;;;;;5036526;28;20470;-68
2023/10/22 07:28:13;;;;;;;4.57;2.20;;;11.20;99.90;;;;;;5037498;28;20456;-68
2023/10/22 07:30:47;;;;;;;2.63;2.30;;;11.10;99.90;;;;;;5037609;28;20817;-68
2023/10/22 07:33:14;;;;;;;2.30;1.60;;;11.10;99.90;;;;;;5039093;28;20459;-68
2023/10/22 07:35:42;;;;;;;3.50;2.37;;;11.10;99.90;;;;;;5039400;28;20465;-67
2023/10/22 07:38:09;;;;;;;3.13;2.13;;;11.20;99.90;;;;;;5036919;28;20536;-67
2023/10/22 07:40:38;;;;;;;2.47;1.90;;;11.20;99.90;;;;;;5038009;28;20465;-67
2023/10/22 07:43:06;;;;;;;3.40;2.07;;;11.30;99.90;;;;;;5038730;28;20801;-67
2023/10/22 07:45:33;;;;;;;5.07;2.33;;;11.30;99.90;;;;;;5038241;28;20528;-67
2023/10/22 07:48:00;;;;;;;3.97;1.93;;;11.40;99.90;;;;;;5037478;28;20542;-67
2023/10/22 07:50:28;;;;;;;3.10;2.10;;;11.50;99.90;;;;;;5037551;28;20876;-67
2023/10/22 07:52:55;;;;;;;3.93;2.43;;;11.50;99.90;;;;;;5034798;28;20908;-67
2023/10/22 07:55:22;;;;;;;3.90;2.13;;;11.50;99.90;;;;;;5036343;28;20511;-67
2023/10/22 07:57:51;;;;;;;2.40;1.50;;;11.60;99.90;;;;;;5035522;28;20546;-67
2023/10/22 08:00:19;;;;;;;3.03;1.80;;;11.70;99.90;;;;;;5035669;28;20875;-67
2023/10/22 08:02:46;;;;;;;4.13;1.77;;;11.80;99.90;;;;;;5034948;28;20515;-66
2023/10/22 08:05:14;;;;;;;3.70;1.70;;;11.70;21.30;;;;;;5034969;28;20459;-67
2023/10/22 08:07:42;;;;;;;4.33;1.70;;;11.70;68.80;;;;;;5035370;28;20543;-67
2023/10/22 08:10:10;;;;;;;2.37;1.90;;;11.70;40.70;;;;;;5035291;28;20554;-67
2023/10/22 08:12:37;;;;;;;2.67;1.80;;;11.70;74.20;;;;;;5035905;28;20935;-67
2023/10/22 08:15:07;;;;;;;2.63;1.57;;;11.80;65.20;;;;;;5034626;28;20464;-66
2023/10/22 08:17:34;;;;;;;3.07;1.57;;;11.80;64.40;;;;;;5037086;28;20494;-67
2023/10/22 08:20:02;;;;;;;2.50;1.70;;;11.90;8.80;;;;;;5035550;28;20486;-67
2023/10/22 08:22:31;;;;;;;3.10;1.63;;;11.80;1.00;;;;;;5035604;28;20502;-67
2023/10/22 08:24:58;;;;;;;3.47;1.60;;;11.90;1.00;;;;;;5034736;28;20518;-67
2023/10/22 08:27:26;;;;;;;2.60;1.67;;;11.90;1.00;;;;;;5034893;28;20467;-67
2023/10/22 08:29:54;;;;;;;5.17;1.67;;;12.00;1.00;;;;;;5034945;28;20622;-67
2023/10/22 08:32:23;;;;;;;3.47;1.93;;;12.00;1.00;;;;;;5034993;28;20467;-67
2023/10/22 08:34:50;;;;;;;3.47;1.70;;;12.00;1.00;;;;;;5035342;28;20455;-66
2023/10/22 08:37:18;;;;;;;2.83;1.60;;;12.10;1.00;;;;;;5035344;28;20549;-66
2023/10/22 08:39:45;;;;;;;4.53;1.83;;;12.10;1.00;;;;;;5035114;28;20524;-67
2023/10/22 08:42:16;;;;;;;3.07;1.83;;;12.10;1.00;;;;;;5034575;28;20880;-66
2023/10/22 08:44:48;;;;;;;3.43;1.87;;;12.20;1.00;;;;;;5034510;28;20889;-66
2023/10/22 08:47:15;;;;;;;4.20;2.03;;;12.20;1.00;;;;;;5034442;28;20847;-66
2023/10/22 08:49:45;;;;;;;4.47;3.93;;;12.20;1.00;;;;;;5034124;28;20459;-66
2023/10/22 08:52:13;;;;;;;5.17;2.10;;;12.20;1.00;;;;;;5034810;28;20466;-66
2023/10/22 08:54:40;;;;;;;4.77;1.97;;;12.40;1.00;;;;;;5034666;28;20455;-66
2023/10/22 08:57:08;;;;;;;2.43;1.50;;;12.40;1.00;;;;;;5034751;28;20539;-66
2023/10/22 08:59:36;;;;;;;2.67;1.53;;;12.50;1.00;;;;;;5035199;28;20463;-67
2023/10/22 09:02:08;;;;;;;4.00;2.07;;;12.40;99.90;;;;;;5033192;28;20820;-67
2023/10/22 09:04:36;;;;;;;2.73;1.60;;;12.40;99.90;;;;;;5032996;28;20578;-66
2023/10/22 09:07:05;;;;;;;2.47;1.70;;;12.40;99.90;;;;;;5033683;27;20483;-67
2023/10/22 09:09:36;;;;;;;3.03;1.57;;;12.40;1.00;;;;;;5032098;28;20765;-66
2023/10/22 09:12:04;;;;;;;3.87;1.83;;;12.40;1.00;;;;;;5031694;28;20718;-67
2023/10/22 09:14:31;;;;;;;2.97;2.10;;;12.30;1.00;;;;;;5032910;28;20455;-66
2023/10/22 09:16:59;;;;;;;2.77;1.60;;;12.40;1.00;;;;;;5032895;28;20495;-67
2023/10/22 09:19:47;;;;;;;3.57;2.10;;;12.60;1.00;;;;;;5033521;28;20463;-66
2023/10/22 09:22:24;;;;;;;2.60;2.00;;;12.60;1.00;;;;;;5036311;28;20770;-67
2023/10/22 09:24:53;;;;;;;3.30;1.60;;;12.70;1.00;;;;;;5033188;28;20587;-67
2023/10/22 09:27:30;;;;;;;3.57;2.10;;;12.90;1.00;;;;;;5033566;28;20486;-67
2023/10/22 09:30:00;;;;;;;3.33;2.57;;;12.80;1.00;;;;;;5032842;28;20469;-67
2023/10/22 09:32:27;;;;;;;3.70;1.80;;;12.90;1.00;;;;;;5032721;28;20472;-67
2023/10/22 09:34:54;;;;;;;2.80;1.90;;;12.80;1.00;;;;;;5033635;28;20463;-67
2023/10/22 09:37:23;;;;;;;3.17;2.10;;;12.80;1.00;;;;;;5034906;28;20495;-66
2023/10/22 09:39:51;;;;;;;4.10;1.70;;;12.80;6.40;;;;;;5036468;28;20883;-67
2023/10/22 09:42:18;;;;;;;4.30;1.80;;;12.70;1.00;;;;;;5036672;28;20883;-67
2023/10/22 09:44:46;;;;;;;4.30;2.50;;;12.70;11.30;;;;;;5034254;28;20497;-67
2023/10/22 09:47:20;;;;;;;4.80;2.03;;;12.70;84.90;;;;;;5037411;28;20791;-66
2023/10/22 09:49:52;;;;;;;2.90;1.80;;;12.70;51.30;;;;;;5036019;28;20465;-67
2023/10/22 09:52:24;;;;;;;3.97;1.80;;;12.70;18.50;;;;;;5036234;28;20441;-66
2023/10/22 09:54:54;;;;;;;3.10;2.17;;;12.60;76.20;;;;;;5036605;28;20455;-66
2023/10/22 09:57:28;;;;;;;3.17;1.80;;;12.70;99.90;;;;;;5036980;28;20885;-66
2023/10/22 10:00:03;;;;;;;3.30;1.80;;;12.70;90.30;;;;;;5036505;28;20463;-66
2023/10/22 10:02:31;;;;;;;3.27;2.10;;;12.60;31.20;;;;;;5037250;28;20462;-66
2023/10/22 10:04:58;;;;;;;3.37;1.80;;;12.60;22.90;;;;;;5037231;28;20899;-66
2023/10/22 10:07:27;;;;;;;3.13;2.07;;;12.50;48.90;;;;;;5036949;28;20977;-66
2023/10/22 10:09:55;;;;;;;3.60;2.30;;;12.50;99.90;;;;;;5037109;28;20495;-66
2023/10/22 10:12:25;;;;;;;3.57;1.73;;;12.50;73.80;;;;;;5037520;28;20461;-66
2023/10/22 10:14:52;;;;;;;3.53;2.23;;;12.50;74.20;;;;;;5036666;28;20488;-65
2023/10/22 10:17:21;;;;;;;3.40;2.10;;;12.50;99.90;;;;;;5036808;28;20817;-65
2023/10/22 10:19:48;;;;;;;3.70;1.93;;;12.60;99.90;;;;;;5037101;28;20495;-65
2023/10/22 10:22:49;;;;;;;2.97;2.13;;;12.60;17.20;;;;;;5036857;28;20463;-65
2023/10/22 10:25:32;;;;;;;4.40;2.40;;;12.60;35.20;;;;;;5036916;28;20491;-65
2023/10/22 10:28:04;;;;;;;4.53;2.30;;;12.60;71.10;;;;;;5036939;28;20454;-64
2023/10/22 10:30:31;;;;;;;3.90;2.00;;;12.60;56.60;;;;;;5037233;28;20463;-64
2023/10/22 10:32:59;;;;;;;2.70;1.77;;;12.50;94.60;;;;;;5037588;28;20459;-64
2023/10/22 10:35:28;;;;;;;4.57;2.10;;;12.60;99.90;;;;;;5036872;28;20455;-65
2023/10/22 10:38:23;;;;;;;4.47;1.97;;;12.70;99.90;;;;;;5036678;28;20470;-64
2023/10/22 10:40:54;;;;;;;7.63;3.27;;;12.70;99.90;;;;;;5035353;27;20558;-64
2023/10/22 10:43:41;;;;;;;4.23;2.40;;;12.70;99.90;;;;;;5036954;28;20768;-63
2023/10/22 10:46:28;;;;;;;5.00;2.37;;;12.80;99.90;;;;;;5036235;28;20485;-63
2023/10/22 10:48:55;;;;;;;3.40;1.83;;;12.90;97.40;;;;;;5035801;28;20488;-63
2023/10/22 10:51:25;;;;;;;6.80;2.10;;;12.90;54.70;;;;;;5036809;28;20491;-63
2023/10/22 10:57:00;;;;;;;3.73;2.07;;;13.30;1.00;;;;;;5016424;28;20439;-62
2023/10/22 10:59:35;;;;;;;5.97;4.30;;;13.40;1.00;;;;;;5016749;28;20952;-63
2023/10/22 11:02:08;;;;;;;3.27;2.60;;;13.50;1.00;;;;;;5016168;28;20455;-62
2023/10/22 11:04:36;;;;;;;2.50;1.63;;;13.60;1.00;;;;;;5035382;28;20801;-63
2023/10/22 11:07:04;;;;;;;4.60;2.00;;;13.70;1.00;;;;;;5036275;28;20589;-62
2023/10/22 11:09:34;;;;;;;2.73;2.10;;;13.80;99.90;;;;;;5036852;28;20469;-62
2023/10/22 11:12:05;;;;;;;3.17;1.63;;;13.70;1.00;;;;;;5036038;28;20444;-62
2023/10/22 11:14:33;;;;;;;3.10;2.03;;;13.80;99.90;;;;;;5035423;28;20462;-62
2023/10/22 11:17:01;;;;;;;3.80;2.27;;;13.80;99.90;;;;;;5036281;28;20553;-62
2023/10/22 11:19:30;;;;;;;3.47;2.40;;;13.90;99.90;;;;;;5036462;28;20434;-62
2023/10/22 11:21:58;;;;;;;3.10;2.10;;;14.00;99.90;;;;;;5035748;28;20470;-62
2023/10/22 11:24:29;;;;;;;3.20;2.37;;;13.90;99.90;;;;;;5036039;28;20906;-61
2023/10/22 11:26:57;;;;;;;3.00;1.67;;;13.80;99.90;;;;;;5036035;28;20562;-61
2023/10/22 11:29:26;;;;;;;3.60;1.77;;;13.70;99.90;;;;;;5036120;28;20545;-62
2023/10/22 11:31:55;;;;;;;4.40;2.10;;;13.70;99.90;;;;;;5035688;28;20493;-63
2023/10/22 11:34:24;;;;;;;4.20;2.30;;;13.70;99.90;;;;;;5035582;28;20508;-63
2023/10/22 11:36:59;;;;;;;4.43;2.27;;;13.70;99.90;;;;;;5034128;28;20554;-63
2023/10/22 11:39:34;;;;;;;3.13;1.80;;;13.70;1.00;;;;;;5036132;28;20494;-63
2023/10/22 11:42:03;;;;;;;3.37;1.90;;;13.60;1.00;;;;;;5034429;28;20438;-63
2023/10/22 11:44:33;;;;;;;4.63;2.10;;;13.70;1.00;;;;;;5033533;28;20491;-63
2023/10/22 11:47:02;;;;;;;6.17;2.73;;;13.60;1.00;;;;;;5035590;28;20451;-62
2023/10/22 11:49:30;;;;;;;3.27;2.00;;;13.60;1.00;;;;;;5035431;28;20553;-63
2023/10/22 11:51:58;;;;;;;3.20;1.80;;;13.70;1.00;;;;;;5034582;28;20818;-63
2023/10/22 11:54:45;;;;;;;4.00;1.90;;;13.60;1.00;;;;;;5033808;28;20545;-63
2023/10/22 11:57:13;;;;;;;3.67;2.37;;;13.70;1.00;;;;;;5034228;28;20839;-63
2023/10/22 11:59:42;;;;;;;4.50;2.83;;;13.80;1.00;;;;;;5034248;28;20459;-63
2023/10/22 12:02:09;;;;;;;3.33;2.40;;;13.90;1.00;;;;;;5034171;28;20455;-63
2023/10/22 12:04:37;;;;;;;4.70;2.43;;;13.80;1.00;;;;;;5034329;28;20491;-62
2023/10/22 12:07:04;;;;;;;3.73;2.30;;;13.90;99.90;;;;;;5034318;28;20488;-62
2023/10/22 12:09:32;;;;;;;4.10;1.90;;;14.00;1.00;;;;;;5034340;28;20499;-62
2023/10/22 12:12:00;;;;;;;6.40;2.20;;;14.00;99.90;;;;;;5034937;28;20455;-63
2023/10/22 12:14:30;;;;;;;3.70;1.90;;;14.00;99.90;;;;;;5035205;28;20501;-62
2023/10/22 12:16:59;;;;;;;3.23;2.20;;;13.90;99.90;;;;;;5034211;28;20767;-62
2023/10/22 12:19:26;;;;;;;2.53;1.87;;;13.90;1.00;;;;;;5033975;28;20455;-62
2023/10/22 12:21:54;;;;;;;3.97;2.10;;;13.90;1.00;;;;;;5033435;28;20831;-62
2023/10/22 12:24:22;;;;;;;2.47;1.40;;;14.00;1.00;;;;;;5032944;28;20495;-62
2023/10/22 12:26:49;;;;;;;3.00;1.53;;;14.20;99.90;;;;;;5028577;28;20523;-62
2023/10/22 12:29:17;;;;;;;2.67;1.80;;;14.20;99.90;;;;;;5025655;28;20866;-62
2023/10/22 12:31:45;;;;;;;3.53;1.90;;;14.20;99.90;;;;;;5034264;27;20491;-62
2023/10/22 12:34:14;;;;;;;3.60;2.37;;;14.30;99.90;;;;;;5033227;28;20456;-62
2023/10/22 12:36:42;;;;;;;2.93;1.70;;;14.40;99.90;;;;;;5083680;27;20455;-62
2023/10/22 12:39:11;;;;;;;4.00;1.70;;;14.60;99.90;;;;;;5042869;27;20463;-62
2023/10/22 12:41:38;;;;;;;2.30;1.73;;;14.80;99.90;;;;;;5014050;28;20431;-62
2023/10/22 12:44:06;;;;;;;3.50;1.50;;;15.10;99.90;;;;;;5032420;28;20656;-62
2023/10/22 12:46:34;;;;;;;4.07;1.90;;;15.20;7.70;;;;;;5032498;28;20495;-63
2023/10/22 12:49:01;;;;;;;2.63;1.90;;;15.50;31.40;;;;;;5033231;28;20459;-62
2023/10/22 12:51:30;;;;;;;2.90;1.80;;;15.70;1.00;;;;;;5032817;28;20528;-63
2023/10/22 12:53:57;;;;;;;2.53;1.63;;;16.00;1.00;;;;;;5034574;28;20463;-62
2023/10/22 12:56:25;;;;;;;3.40;2.40;;;15.90;1.00;;;;;;5033722;28;21054;-62
2023/10/22 12:58:55;;;;;;;2.40;1.80;;;15.80;1.00;;;;;;5032715;28;20962;-62
2023/10/22 13:01:22;;;;;;;2.40;1.90;;;15.60;1.00;;;;;;5032492;28;20928;-62